createdAt,value
2017-08-11T00:01:13.847Z,101660
2017-08-11T00:03:41.970Z,101674
2017-08-11T00:06:10.129Z,101682
2017-08-11T00:08:39.068Z,101682
2017-08-11T00:11:07.243Z,101691
2017-08-11T00:13:35.427Z,101682
2017-08-11T00:16:03.574Z,101679
2017-08-11T00:18:31.758Z,101689
2017-08-11T00:20:59.964Z,101685
2017-08-11T00:23:28.132Z,101671
2017-08-11T00:25:56.251Z,101670
2017-08-11T00:28:25.186Z,101681
2017-08-11T00:30:53.314Z,101663
2017-08-11T00:33:22.226Z,101659
2017-08-11T00:35:50.394Z,101646
2017-08-11T00:38:18.541Z,101653
2017-08-11T00:40:47.516Z,101644
2017-08-11T00:43:15.671Z,101647
2017-08-11T00:45:43.813Z,101647
2017-08-11T00:48:12.000Z,101634
2017-08-11T00:50:40.148Z,101641
2017-08-11T00:53:09.077Z,101651
2017-08-11T00:55:37.266Z,101637
2017-08-11T00:58:05.440Z,101638
2017-08-11T01:00:33.587Z,101623
2017-08-11T01:03:01.793Z,101618
2017-08-11T01:05:29.946Z,101631
2017-08-11T01:07:58.112Z,101626
2017-08-11T01:10:26.305Z,101633
2017-08-11T01:12:54.471Z,101628
2017-08-11T01:15:22.625Z,101628
2017-08-11T01:17:50.817Z,101627
2017-08-11T01:20:18.984Z,101614
2017-08-11T01:22:47.129Z,101612
2017-08-11T01:25:16.069Z,101613
2017-08-11T01:27:44.236Z,101608
2017-08-11T01:30:12.391Z,101608
2017-08-11T01:32:40.566Z,101598
2017-08-11T01:35:08.730Z,101600
2017-08-11T01:37:36.906Z,101613
2017-08-11T01:40:05.101Z,101621
2017-08-11T01:42:33.294Z,101619
2017-08-11T01:45:01.442Z,101609
2017-08-11T01:47:29.625Z,101604
2017-08-11T01:49:57.796Z,101607
2017-08-11T01:52:25.954Z,101604
2017-08-11T01:54:54.152Z,101605
2017-08-11T01:57:22.306Z,101612
2017-08-11T01:59:50.455Z,101617
2017-08-11T02:02:19.422Z,101616
2017-08-11T02:04:47.589Z,101600
2017-08-11T02:07:15.735Z,101586
2017-08-11T02:09:43.929Z,101591
2017-08-11T02:12:12.082Z,101588
2017-08-11T02:14:40.228Z,101587
2017-08-11T02:17:09.180Z,101584
2017-08-11T02:19:37.334Z,101580
2017-08-11T02:22:05.486Z,101563
2017-08-11T02:24:33.663Z,101566
2017-08-11T02:27:01.812Z,101562
2017-08-11T02:29:30.740Z,101549
2017-08-11T02:31:58.922Z,101539
2017-08-11T02:34:27.074Z,101539
2017-08-11T02:36:55.220Z,101524
2017-08-11T02:39:24.174Z,101528
2017-08-11T02:41:52.322Z,101539
2017-08-11T02:44:20.494Z,101533
2017-08-11T02:46:48.699Z,101529
2017-08-11T02:49:16.843Z,101529
2017-08-11T02:51:45.018Z,101523
2017-08-11T02:54:13.215Z,101525
2017-08-11T02:56:41.365Z,101524
2017-08-11T02:59:09.514Z,101530
2017-08-11T03:01:37.687Z,101517
2017-08-11T03:04:06.621Z,101504
2017-08-11T03:06:34.770Z,101515
2017-08-11T03:09:02.965Z,101503
2017-08-11T03:11:31.126Z,101503
2017-08-11T03:14:00.142Z,101493
2017-08-11T03:16:28.315Z,101491
2017-08-11T03:18:56.463Z,101493
2017-08-11T03:21:24.625Z,101489
2017-08-11T03:23:53.563Z,101494
2017-08-11T03:26:21.717Z,101500
2017-08-11T03:28:49.886Z,101484
2017-08-11T03:31:18.068Z,101483
2017-08-11T03:33:46.273Z,101470
2017-08-11T03:36:14.413Z,101478
2017-08-11T03:38:42.606Z,101472
2017-08-11T03:41:10.773Z,101473
2017-08-11T03:43:38.924Z,101477
2017-08-11T03:46:07.137Z,101472
2017-08-11T03:48:35.302Z,101455
2017-08-11T03:51:03.482Z,101454
2017-08-11T03:53:31.676Z,101453
2017-08-11T03:55:59.826Z,101455
2017-08-11T03:58:27.977Z,101450
2017-08-11T04:00:56.158Z,101450
2017-08-11T04:03:24.325Z,101447
2017-08-11T04:05:52.493Z,101445
2017-08-11T04:08:20.694Z,101446
2017-08-11T04:10:48.861Z,101447
2017-08-11T04:13:17.025Z,101447
2017-08-11T04:15:45.223Z,101450
2017-08-11T04:18:13.391Z,101451
2017-08-11T04:20:41.560Z,101450
2017-08-11T04:23:09.742Z,101438
2017-08-11T04:25:37.891Z,101438
2017-08-11T04:28:06.063Z,101432
2017-08-11T04:30:34.301Z,101425
2017-08-11T04:33:03.219Z,101427
2017-08-11T04:35:31.393Z,101434
2017-08-11T04:37:59.573Z,101422
2017-08-11T04:40:27.744Z,101425
2017-08-11T04:42:55.930Z,101424
2017-08-11T04:45:24.143Z,101434
2017-08-11T04:47:52.295Z,101424
2017-08-11T04:50:20.467Z,101431
2017-08-11T04:52:48.641Z,101438
2017-08-11T04:55:16.809Z,101432
2017-08-11T04:57:44.984Z,101431
2017-08-11T05:00:13.191Z,101432
2017-08-11T05:02:41.361Z,101431
2017-08-11T05:05:09.507Z,101434
2017-08-11T05:07:37.712Z,101448
2017-08-11T05:10:05.859Z,101436
2017-08-11T05:12:34.011Z,101442
2017-08-11T05:15:02.209Z,101445
2017-08-11T05:17:30.358Z,101444
2017-08-11T05:19:58.525Z,101446
2017-08-11T05:22:26.702Z,101444
2017-08-11T05:24:54.857Z,101438
2017-08-11T05:27:23.028Z,101426
2017-08-11T05:29:51.231Z,101434
2017-08-11T05:32:19.399Z,101429
2017-08-11T05:34:47.573Z,101429
2017-08-11T05:37:15.765Z,101427
2017-08-11T05:39:43.931Z,101427
2017-08-11T05:42:12.098Z,101428
2017-08-11T05:44:40.301Z,101432
2017-08-11T05:47:08.445Z,101429
2017-08-11T05:49:36.649Z,101431
2017-08-11T05:52:04.828Z,101428
2017-08-11T05:54:32.976Z,101422
2017-08-11T05:57:01.122Z,101420
2017-08-11T05:59:29.298Z,101431
2017-08-11T06:01:57.446Z,101424
2017-08-11T06:04:25.600Z,101436
2017-08-11T06:06:55.047Z,101433
2017-08-11T06:09:23.222Z,101438
2017-08-11T06:11:51.392Z,101439
2017-08-11T06:14:19.595Z,101433
2017-08-11T06:16:47.765Z,101422
2017-08-11T06:19:16.683Z,101418
2017-08-11T06:21:44.899Z,101419
2017-08-11T06:24:13.057Z,101421
2017-08-11T06:26:41.211Z,101424
2017-08-11T06:29:09.405Z,101427
2017-08-11T06:31:37.570Z,101424
2017-08-11T06:34:05.733Z,101415
2017-08-11T06:36:33.906Z,101412
2017-08-11T06:39:02.075Z,101412
2017-08-11T06:41:30.227Z,101408
2017-08-11T06:43:58.433Z,101406
2017-08-11T06:46:26.582Z,101405
2017-08-11T06:48:54.735Z,101404
2017-08-11T06:51:22.933Z,101403
2017-08-11T06:53:51.082Z,101395
2017-08-11T06:56:19.240Z,101390
2017-08-11T06:58:48.187Z,101394
2017-08-11T07:01:16.364Z,101398
2017-08-11T07:03:44.506Z,101399
2017-08-11T07:06:12.693Z,101408
2017-08-11T07:08:40.846Z,101414
2017-08-11T07:11:08.994Z,101420
2017-08-11T07:13:37.967Z,101417
2017-08-11T07:16:06.113Z,101417
2017-08-11T07:18:34.281Z,101404
2017-08-11T07:21:02.482Z,101404
2017-08-11T07:23:30.656Z,101404
2017-08-11T07:25:58.824Z,101414
2017-08-11T07:28:27.018Z,101409
2017-08-11T07:30:55.179Z,101405
2017-08-11T07:33:23.345Z,101404
2017-08-11T07:35:51.530Z,101386
2017-08-11T07:38:19.683Z,101390
2017-08-11T07:40:47.904Z,101376
2017-08-11T07:43:16.850Z,101373
2017-08-11T07:45:45.002Z,101374
2017-08-11T07:48:13.154Z,101379
2017-08-11T07:50:42.118Z,101370
2017-08-11T07:53:10.294Z,101371
2017-08-11T07:55:38.462Z,101365
2017-08-11T07:58:06.638Z,101374
2017-08-11T08:00:34.788Z,101375
2017-08-11T08:03:02.956Z,101372
2017-08-11T08:05:31.170Z,101370
2017-08-11T08:07:59.341Z,101369
2017-08-11T08:10:27.496Z,101382
2017-08-11T08:12:55.689Z,101380
2017-08-11T08:15:23.870Z,101385
2017-08-11T08:17:52.042Z,101383
2017-08-11T08:20:20.239Z,101374
2017-08-11T08:22:49.180Z,101384
2017-08-11T08:25:17.352Z,101385
2017-08-11T08:27:45.556Z,101385
2017-08-11T08:30:13.702Z,101393
2017-08-11T08:32:41.860Z,101382
2017-08-11T08:35:10.371Z,101384
2017-08-11T08:37:38.547Z,101381
2017-08-11T08:40:06.746Z,101379
2017-08-11T08:42:34.951Z,101377
2017-08-11T08:45:03.100Z,101379
2017-08-11T08:47:31.252Z,101377
2017-08-11T08:49:59.461Z,101377
2017-08-11T08:52:28.385Z,101379
2017-08-11T08:54:56.553Z,101375
2017-08-11T08:57:24.756Z,101377
2017-08-11T08:59:52.908Z,101366
2017-08-11T09:02:21.073Z,101384
2017-08-11T09:04:49.268Z,101373
2017-08-11T09:07:17.418Z,101373
2017-08-11T09:09:45.565Z,101382
2017-08-11T09:12:13.746Z,101373
2017-08-11T09:14:42.678Z,101374
2017-08-11T09:17:10.857Z,101373
2017-08-11T09:19:39.058Z,101376
2017-08-11T09:22:07.208Z,101374
2017-08-11T09:24:53.150Z,101372
2017-08-11T09:27:54.812Z,101361
2017-08-11T09:30:41.806Z,101363
2017-08-11T09:33:27.980Z,101362
2017-08-11T09:36:14.068Z,101364
2017-08-11T09:38:42.241Z,101364
2017-08-11T09:41:10.395Z,101371
2017-08-11T09:43:38.597Z,101365
2017-08-11T09:46:06.766Z,101363
2017-08-11T09:48:34.917Z,101360
2017-08-11T09:51:03.096Z,101352
2017-08-11T09:53:31.249Z,101361
2017-08-11T09:56:00.174Z,101368
2017-08-11T09:58:28.374Z,101364
2017-08-11T10:00:56.542Z,101366
2017-08-11T10:03:24.712Z,101367
2017-08-11T10:05:52.909Z,101375
2017-08-11T10:08:21.080Z,101366
2017-08-11T10:10:49.250Z,101369
2017-08-11T10:13:17.431Z,101365
2017-08-11T10:15:45.582Z,101373
2017-08-11T10:18:13.731Z,101364
2017-08-11T10:20:41.942Z,101367
2017-08-11T10:23:10.118Z,101361
2017-08-11T10:25:38.270Z,101359
2017-08-11T10:28:06.450Z,101358
2017-08-11T10:30:34.621Z,101343
2017-08-11T10:33:02.792Z,101344
2017-08-11T10:35:30.999Z,101349
2017-08-11T10:37:59.169Z,101348
2017-08-11T10:40:27.317Z,101351
2017-08-11T10:42:55.507Z,101349
2017-08-11T10:45:23.726Z,101351
2017-08-11T10:47:52.651Z,101351
2017-08-11T10:50:20.849Z,101346
2017-08-11T10:52:49.000Z,101350
2017-08-11T10:55:17.173Z,101338
2017-08-11T10:57:45.892Z,101342
2017-08-11T11:00:14.044Z,101349
2017-08-11T11:02:42.215Z,101347
2017-08-11T11:05:10.410Z,101343
2017-08-11T11:07:38.582Z,101340
2017-08-11T11:10:06.760Z,101338
2017-08-11T11:12:34.939Z,101336
2017-08-11T11:15:03.092Z,101339
2017-08-11T11:17:31.238Z,101334
2017-08-11T11:20:00.261Z,101325
2017-08-11T11:22:28.434Z,101322
2017-08-11T11:24:56.607Z,101322
2017-08-11T11:27:24.801Z,101321
2017-08-11T11:29:52.973Z,101310
2017-08-11T11:32:21.130Z,101305
2017-08-11T11:34:49.325Z,101305
2017-08-11T11:37:17.474Z,101306
2017-08-11T11:39:45.618Z,101310
2017-08-11T11:42:14.587Z,101300
2017-08-11T11:44:42.760Z,101301
2017-08-11T11:47:10.926Z,101304
2017-08-11T11:49:39.143Z,101301
2017-08-11T11:52:08.081Z,101297
2017-08-11T11:54:36.231Z,101291
2017-08-11T11:57:04.408Z,101287
2017-08-11T11:59:32.563Z,101275
2017-08-11T12:02:00.741Z,101266
2017-08-11T12:04:28.937Z,101278
2017-08-11T12:06:57.100Z,101270
2017-08-11T12:09:25.272Z,101274
2017-08-11T12:11:53.451Z,101277
2017-08-11T12:14:21.622Z,101270
2017-08-11T12:16:49.778Z,101267
2017-08-11T12:19:18.726Z,101266
2017-08-11T12:21:46.893Z,101254
2017-08-11T12:24:15.065Z,101253
2017-08-11T12:26:43.263Z,101240
2017-08-11T12:29:11.425Z,101227
2017-08-11T12:31:39.574Z,101231
2017-08-11T12:34:07.771Z,101231
2017-08-11T12:36:35.934Z,101233
2017-08-11T12:39:04.087Z,101237
2017-08-11T12:41:32.285Z,101237
2017-08-11T12:44:00.452Z,101251
2017-08-11T12:46:28.621Z,101246
2017-08-11T12:48:56.819Z,101252
2017-08-11T12:51:24.974Z,101256
2017-08-11T12:53:53.141Z,101269
2017-08-11T12:56:21.323Z,101273
2017-08-11T12:58:49.475Z,101282
2017-08-11T13:01:17.628Z,101289
2017-08-11T13:03:45.823Z,101296
2017-08-11T13:06:13.996Z,101303
2017-08-11T13:08:42.144Z,101307
2017-08-11T13:11:10.344Z,101306
2017-08-11T13:13:38.505Z,101312
2017-08-11T13:16:07.442Z,101306
2017-08-11T13:18:35.643Z,101306
2017-08-11T13:21:03.820Z,101309
2017-08-11T13:23:31.994Z,101303
2017-08-11T13:26:00.169Z,101296
2017-08-11T13:28:28.341Z,101300
2017-08-11T13:30:56.511Z,101298
2017-08-11T13:33:24.687Z,101298
2017-08-11T13:35:52.863Z,101286
2017-08-11T13:38:21.012Z,101280
2017-08-11T13:40:49.208Z,101272
2017-08-11T13:43:17.388Z,101263
2017-08-11T13:45:45.561Z,101262
2017-08-11T13:48:13.740Z,101252
2017-08-11T13:50:41.890Z,101244
2017-08-11T13:53:10.125Z,101256
2017-08-11T13:55:38.347Z,101242
2017-08-11T13:58:07.266Z,101224
2017-08-11T14:00:35.433Z,101220
2017-08-11T14:03:04.382Z,101223
2017-08-11T14:05:32.549Z,101217
2017-08-11T14:08:00.760Z,101200
2017-08-11T14:10:28.943Z,101211
2017-08-11T14:12:57.089Z,101218
2017-08-11T14:15:25.254Z,101225
2017-08-11T14:17:53.452Z,101234
2017-08-11T14:20:21.596Z,101234
2017-08-11T14:22:49.747Z,101231
2017-08-11T14:25:18.705Z,101227
2017-08-11T14:27:46.878Z,101242
2017-08-11T14:30:15.038Z,101240
2017-08-11T14:32:43.215Z,101246
2017-08-11T14:35:11.364Z,101232
2017-08-11T14:37:39.530Z,101239
2017-08-11T14:40:07.718Z,101237
2017-08-11T14:42:35.892Z,101233
2017-08-11T14:45:04.043Z,101231
2017-08-11T14:47:32.245Z,101218
2017-08-11T14:50:00.394Z,101213
2017-08-11T14:52:28.557Z,101219
2017-08-11T14:54:57.502Z,101217
2017-08-11T14:57:25.648Z,101216
2017-08-11T14:59:53.799Z,101217
2017-08-11T15:02:22.745Z,101214
2017-08-11T15:04:50.913Z,101219
2017-08-11T15:07:19.081Z,101217
2017-08-11T15:09:47.261Z,101206
2017-08-11T15:12:15.412Z,101203
2017-08-11T15:14:43.580Z,101215
2017-08-11T15:17:11.755Z,101210
2017-08-11T15:19:39.930Z,101224
2017-08-11T15:22:08.101Z,101208
2017-08-11T15:24:36.299Z,101208
2017-08-11T15:27:04.474Z,101214
2017-08-11T15:29:32.645Z,101211
2017-08-11T15:32:00.829Z,101217
2017-08-11T15:34:28.990Z,101213
2017-08-11T15:36:57.158Z,101210
2017-08-11T15:39:25.337Z,101211
2017-08-11T15:41:53.500Z,101206
2017-08-11T15:44:21.668Z,101206
2017-08-11T15:46:49.851Z,101207
2017-08-11T15:49:18.028Z,101198
2017-08-11T15:51:46.193Z,101204
2017-08-11T15:54:14.370Z,101199
2017-08-11T15:56:42.529Z,101196
2017-08-11T15:59:10.688Z,101197
2017-08-11T16:01:38.881Z,101203
2017-08-11T16:04:07.792Z,101201
2017-08-11T16:06:35.967Z,101198
2017-08-11T16:09:04.208Z,101191
2017-08-11T16:11:33.156Z,101178
2017-08-11T16:14:01.327Z,101176
2017-08-11T16:16:30.561Z,101180
2017-08-11T16:18:58.707Z,101182
2017-08-11T16:21:26.855Z,101181
2017-08-11T16:23:55.045Z,101168
2017-08-11T16:26:23.197Z,101165
2017-08-11T16:28:51.355Z,101153
2017-08-11T16:31:20.313Z,101144
2017-08-11T16:33:48.458Z,101149
2017-08-11T16:36:16.614Z,101139
2017-08-11T16:38:44.803Z,101131
2017-08-11T16:41:12.968Z,101126
2017-08-11T16:43:41.132Z,101138
2017-08-11T16:46:09.324Z,101141
2017-08-11T16:48:37.488Z,101132
2017-08-11T16:51:05.638Z,101129
2017-08-11T16:53:34.605Z,101136
2017-08-11T16:56:02.770Z,101135
2017-08-11T16:58:30.914Z,101132
2017-08-11T17:00:59.114Z,101136
2017-08-11T17:03:27.269Z,101126
2017-08-11T17:05:55.433Z,101119
2017-08-11T17:08:23.613Z,101116
2017-08-11T17:10:51.780Z,101118
2017-08-11T17:13:19.922Z,101122
2017-08-11T17:15:48.118Z,101123
2017-08-11T17:18:16.288Z,101124
2017-08-11T17:20:45.198Z,101118
2017-08-11T17:23:13.414Z,101124
2017-08-11T17:25:41.584Z,101114
2017-08-11T17:28:09.736Z,101100
2017-08-11T17:30:37.912Z,101093
2017-08-11T17:33:06.085Z,101094
2017-08-11T17:35:34.269Z,101082
2017-08-11T17:38:02.465Z,101075
2017-08-11T17:40:30.636Z,101081
2017-08-11T17:42:58.791Z,101077
2017-08-11T17:45:26.974Z,101075
2017-08-11T17:47:55.126Z,101074
2017-08-11T17:50:23.312Z,101076
2017-08-11T17:52:51.504Z,101081
2017-08-11T17:55:19.654Z,101077
2017-08-11T17:57:47.807Z,101082
2017-08-11T18:00:15.991Z,101092
2017-08-11T18:02:44.138Z,101090
2017-08-11T18:05:13.058Z,101101
2017-08-11T18:07:41.247Z,101113
2017-08-11T18:10:09.417Z,101124
2017-08-11T18:12:37.593Z,101121
2017-08-11T18:15:05.775Z,101111
2017-08-11T18:17:33.953Z,101115
2017-08-11T18:20:02.128Z,101115
2017-08-11T18:22:30.332Z,101121
2017-08-11T18:24:58.508Z,101124
2017-08-11T18:27:26.677Z,101120
2017-08-11T18:29:54.869Z,101127
2017-08-11T18:32:23.030Z,101138
2017-08-11T18:34:51.197Z,101131
2017-08-11T18:37:19.398Z,101126
2017-08-11T18:39:48.322Z,101127
2017-08-11T18:42:16.497Z,101118
2017-08-11T18:44:44.684Z,101113
2017-08-11T18:47:12.849Z,101113
2017-08-11T18:49:41.001Z,101101
2017-08-11T18:52:09.209Z,101089
2017-08-11T18:54:37.353Z,101078
2017-08-11T18:57:05.530Z,101050
2017-08-11T18:59:33.708Z,101041
2017-08-11T19:02:01.862Z,101038
2017-08-11T19:04:30.786Z,101031
2017-08-11T19:06:58.960Z,101029
2017-08-11T19:09:27.107Z,101022
2017-08-11T19:11:56.053Z,101026
2017-08-11T19:14:24.232Z,101041
2017-08-11T19:16:52.373Z,101037
2017-08-11T19:19:20.542Z,101050
2017-08-11T19:21:48.741Z,101053
2017-08-11T19:24:16.901Z,101063
2017-08-11T19:26:45.073Z,101064
2017-08-11T19:29:13.250Z,101063
2017-08-11T19:31:41.421Z,101069
2017-08-11T19:34:09.570Z,101060
2017-08-11T19:36:38.512Z,101060
2017-08-11T19:39:06.684Z,101075
2017-08-11T19:41:34.854Z,101068
2017-08-11T19:44:03.042Z,101051
2017-08-11T19:46:31.187Z,101041
2017-08-11T19:48:59.335Z,101037
2017-08-11T19:51:28.283Z,101035
2017-08-11T19:53:56.453Z,101035
2017-08-11T19:56:24.621Z,101018
2017-08-11T19:58:52.798Z,101017
2017-08-11T20:01:20.964Z,101017
2017-08-11T20:03:49.122Z,101021
2017-08-11T20:06:17.303Z,101017
2017-08-11T20:08:45.460Z,101010
2017-08-11T20:11:13.618Z,101010
2017-08-11T20:13:42.585Z,101008
2017-08-11T20:16:10.735Z,101012
2017-08-11T20:18:38.882Z,101014
2017-08-11T20:21:07.081Z,101013
2017-08-11T20:23:35.234Z,101004
2017-08-11T20:26:03.378Z,100998
2017-08-11T20:28:32.652Z,101015
2017-08-11T20:31:00.804Z,101025
2017-08-11T20:33:28.953Z,101028
2017-08-11T20:35:57.141Z,101028
2017-08-11T20:38:25.329Z,101032
2017-08-11T20:40:53.510Z,101036
2017-08-11T20:43:21.691Z,101044
2017-08-11T20:45:49.850Z,101050
2017-08-11T20:48:17.997Z,101050
2017-08-11T20:50:46.174Z,101042
2017-08-11T20:53:14.346Z,101034
2017-08-11T20:55:42.513Z,101034
2017-08-11T20:58:10.686Z,101030
2017-08-11T21:00:39.607Z,101022
2017-08-11T21:03:07.762Z,101015
2017-08-11T21:05:35.965Z,101005
2017-08-11T21:08:04.138Z,100998
2017-08-11T21:10:32.301Z,101004
2017-08-11T21:13:00.504Z,100983
2017-08-11T21:15:28.646Z,100983
2017-08-11T21:17:56.794Z,100976
2017-08-11T21:20:25.741Z,100967
2017-08-11T21:22:53.887Z,100966
2017-08-11T21:25:22.053Z,100980
2017-08-11T21:27:50.250Z,100982
2017-08-11T21:30:18.422Z,100985
2017-08-11T21:32:46.589Z,100986
2017-08-11T21:35:14.776Z,100980
2017-08-11T21:37:42.917Z,100985
2017-08-11T21:40:11.834Z,100985
2017-08-11T21:42:40.038Z,100994
2017-08-11T21:45:08.183Z,100999
2017-08-11T21:47:36.329Z,101008
2017-08-11T21:50:05.296Z,101012
2017-08-11T21:52:33.464Z,101022
2017-08-11T21:55:01.623Z,101012
2017-08-11T21:57:29.799Z,101010
2017-08-11T21:59:57.945Z,101001
2017-08-11T22:02:26.091Z,100992
2017-08-11T22:04:55.049Z,100999
2017-08-11T22:07:23.197Z,101002
2017-08-11T22:09:51.348Z,100998
2017-08-11T22:12:19.532Z,100991
2017-08-11T22:14:47.706Z,100985
2017-08-11T22:17:15.848Z,100991
2017-08-11T22:19:44.798Z,100991
2017-08-11T22:22:12.967Z,100986
2017-08-11T22:24:41.129Z,100987
2017-08-11T22:27:09.321Z,100990
2017-08-11T22:29:37.470Z,100992
2017-08-11T22:32:05.615Z,100988
2017-08-11T22:34:33.787Z,100988
2017-08-11T22:37:02.709Z,100971
2017-08-11T22:39:30.873Z,100980
2017-08-11T22:41:59.075Z,100978
2017-08-11T22:44:27.237Z,100971
2017-08-11T22:46:55.406Z,100971
2017-08-11T22:49:23.604Z,100980
2017-08-11T22:51:51.777Z,100978
2017-08-11T22:54:20.847Z,100977
2017-08-11T22:56:49.024Z,100981
2017-08-11T22:59:17.189Z,100974
2017-08-11T23:01:45.339Z,100975
2017-08-11T23:04:13.539Z,100970
2017-08-11T23:06:41.691Z,100970
2017-08-11T23:09:10.621Z,100958
2017-08-11T23:11:38.793Z,100949
2017-08-11T23:14:06.956Z,100948
2017-08-11T23:16:35.124Z,100945
2017-08-11T23:19:03.317Z,100955
2017-08-11T23:21:31.485Z,100956
2017-08-11T23:23:59.631Z,100958
2017-08-11T23:26:28.588Z,100963
2017-08-11T23:28:56.736Z,100957
2017-08-11T23:31:24.896Z,100958
2017-08-11T23:33:53.084Z,100958
2017-08-11T23:36:21.249Z,100949
2017-08-11T23:38:49.395Z,100948
2017-08-11T23:41:18.361Z,100942
2017-08-11T23:43:46.529Z,100939
2017-08-11T23:46:14.670Z,100949
2017-08-11T23:48:43.185Z,100953
2017-08-11T23:51:11.361Z,100950
2017-08-11T23:53:39.520Z,100949
2017-08-11T23:56:07.691Z,100943
2017-08-11T23:58:36.623Z,100936
